sensor_id;sensor_type;location;lat;lon;timestamp;P1;durP1;ratioP1;P2;durP2;ratioP2
60710;SDS011;46554;48.138;8.420;2024-02-23T00:01:16;1.00;;;1.00;;
60710;SDS011;46554;48.138;8.420;2024-02-23T00:03:41;2.40;;;2.30;;
60710;SDS011;46554;48.138;8.420;2024-02-23T00:06:07;4.03;;;3.83;;
60710;SDS011;46554;48.138;8.420;2024-02-23T00:08:36;2.60;;;2.50;;
60710;SDS011;46554;48.138;8.420;2024-02-23T00:11:02;1.70;;;1.70;;
60710;SDS011;46554;48.138;8.420;2024-02-23T00:13:28;0.50;;;0.50;;
60710;SDS011;46554;48.138;8.420;2024-02-23T00:15:53;0.52;;;0.52;;
60710;SDS011;46554;48.138;8.420;2024-02-23T00:18:19;0.95;;;0.95;;
60710;SDS011;46554;48.138;8.420;2024-02-23T00:20:46;0.70;;;0.70;;
60710;SDS011;46554;48.138;8.420;2024-02-23T00:23:11;0.50;;;0.50;;
60710;SDS011;46554;48.138;8.420;2024-02-23T00:25:37;0.50;;;0.50;;
60710;SDS011;46554;48.138;8.420;2024-02-23T00:28:03;0.50;;;0.50;;
60710;SDS011;46554;48.138;8.420;2024-02-23T00:30:28;1.58;;;1.48;;
60710;SDS011;46554;48.138;8.420;2024-02-23T00:32:54;0.68;;;0.68;;
60710;SDS011;46554;48.138;8.420;2024-02-23T00:35:19;0.82;;;0.82;;
60710;SDS011;46554;48.138;8.420;2024-02-23T00:37:44;2.92;;;1.23;;
60710;SDS011;46554;48.138;8.420;2024-02-23T00:40:10;0.60;;;0.60;;
60710;SDS011;46554;48.138;8.420;2024-02-23T00:42:36;0.40;;;0.40;;
60710;SDS011;46554;48.138;8.420;2024-02-23T00:45:02;0.60;;;0.60;;
60710;SDS011;46554;48.138;8.420;2024-02-23T00:47:28;0.70;;;0.70;;
60710;SDS011;46554;48.138;8.420;2024-02-23T00:49:53;0.70;;;0.70;;
60710;SDS011;46554;48.138;8.420;2024-02-23T00:52:19;0.57;;;0.57;;
60710;SDS011;46554;48.138;8.420;2024-02-23T00:54:46;0.52;;;0.52;;
60710;SDS011;46554;48.138;8.420;2024-02-23T00:57:12;0.40;;;0.40;;
60710;SDS011;46554;48.138;8.420;2024-02-23T00:59:38;0.40;;;0.40;;
60710;SDS011;46554;48.138;8.420;2024-02-23T01:02:03;0.40;;;0.40;;
60710;SDS011;46554;48.138;8.420;2024-02-23T01:04:30;0.50;;;0.50;;
60710;SDS011;46554;48.138;8.420;2024-02-23T01:06:55;0.93;;;0.93;;
60710;SDS011;46554;48.138;8.420;2024-02-23T01:09:20;0.80;;;0.80;;
60710;SDS011;46554;48.138;8.420;2024-02-23T01:11:49;0.63;;;0.63;;
60710;SDS011;46554;48.138;8.420;2024-02-23T01:14:14;0.60;;;0.60;;
60710;SDS011;46554;48.138;8.420;2024-02-23T01:16:39;0.50;;;0.50;;
60710;SDS011;46554;48.138;8.420;2024-02-23T01:19:05;0.57;;;0.57;;
60710;SDS011;46554;48.138;8.420;2024-02-23T01:21:35;0.50;;;0.50;;
60710;SDS011;46554;48.138;8.420;2024-02-23T01:24:01;0.82;;;0.82;;
60710;SDS011;46554;48.138;8.420;2024-02-23T01:26:29;0.63;;;0.63;;
60710;SDS011;46554;48.138;8.420;2024-02-23T01:28:54;1.00;;;1.00;;
60710;SDS011;46554;48.138;8.420;2024-02-23T01:31:20;1.27;;;1.27;;
60710;SDS011;46554;48.138;8.420;2024-02-23T01:33:45;1.05;;;1.05;;
60710;SDS011;46554;48.138;8.420;2024-02-23T01:36:14;0.93;;;0.93;;
60710;SDS011;46554;48.138;8.420;2024-02-23T01:38:40;0.90;;;0.90;;
60710;SDS011;46554;48.138;8.420;2024-02-23T01:41:07;0.80;;;0.80;;
60710;SDS011;46554;48.138;8.420;2024-02-23T01:43:33;0.90;;;0.90;;
60710;SDS011;46554;48.138;8.420;2024-02-23T01:45:58;0.80;;;0.80;;
60710;SDS011;46554;48.138;8.420;2024-02-23T01:48:24;0.80;;;0.80;;
60710;SDS011;46554;48.138;8.420;2024-02-23T01:50:50;0.80;;;0.80;;
60710;SDS011;46554;48.138;8.420;2024-02-23T01:53:17;0.90;;;0.90;;
60710;SDS011;46554;48.138;8.420;2024-02-23T01:55:45;0.90;;;0.90;;
60710;SDS011;46554;48.138;8.420;2024-02-23T01:58:14;1.13;;;1.13;;
60710;SDS011;46554;48.138;8.420;2024-02-23T02:00:41;1.00;;;1.00;;
60710;SDS011;46554;48.138;8.420;2024-02-23T02:03:06;1.00;;;1.00;;
60710;SDS011;46554;48.138;8.420;2024-02-23T02:05:35;1.10;;;1.10;;
60710;SDS011;46554;48.138;8.420;2024-02-23T02:08:02;1.60;;;1.60;;
60710;SDS011;46554;48.138;8.420;2024-02-23T02:10:27;1.40;;;1.40;;
60710;SDS011;46554;48.138;8.420;2024-02-23T02:12:53;1.38;;;1.38;;
60710;SDS011;46554;48.138;8.420;2024-02-23T02:15:18;1.02;;;1.02;;
60710;SDS011;46554;48.138;8.420;2024-02-23T02:17:45;0.88;;;0.88;;
60710;SDS011;46554;48.138;8.420;2024-02-23T02:20:13;1.17;;;1.17;;
60710;SDS011;46554;48.138;8.420;2024-02-23T02:22:46;6.20;;;1.50;;
60710;SDS011;46554;48.138;8.420;2024-02-23T02:25:13;1.02;;;1.02;;
60710;SDS011;46554;48.138;8.420;2024-02-23T02:27:39;1.90;;;1.90;;
60710;SDS011;46554;48.138;8.420;2024-02-23T02:30:05;2.63;;;2.53;;
60710;SDS011;46554;48.138;8.420;2024-02-23T02:32:37;3.75;;;3.65;;
60710;SDS011;46554;48.138;8.420;2024-02-23T02:35:02;3.83;;;3.72;;
60710;SDS011;46554;48.138;8.420;2024-02-23T02:37:28;1.80;;;1.80;;
60710;SDS011;46554;48.138;8.420;2024-02-23T02:39:54;1.05;;;1.05;;
60710;SDS011;46554;48.138;8.420;2024-02-23T02:42:19;0.80;;;0.80;;
60710;SDS011;46554;48.138;8.420;2024-02-23T02:44:44;0.80;;;0.80;;
60710;SDS011;46554;48.138;8.420;2024-02-23T02:47:10;1.00;;;1.00;;
60710;SDS011;46554;48.138;8.420;2024-02-23T02:49:35;1.13;;;1.13;;
60710;SDS011;46554;48.138;8.420;2024-02-23T02:52:01;1.23;;;1.23;;
60710;SDS011;46554;48.138;8.420;2024-02-23T02:54:26;1.48;;;1.48;;
60710;SDS011;46554;48.138;8.420;2024-02-23T02:56:52;2.85;;;2.00;;
60710;SDS011;46554;48.138;8.420;2024-02-23T02:59:19;0.60;;;0.60;;
60710;SDS011;46554;48.138;8.420;2024-02-23T03:01:45;0.90;;;0.90;;
60710;SDS011;46554;48.138;8.420;2024-02-23T03:04:13;0.60;;;0.60;;
60710;SDS011;46554;48.138;8.420;2024-02-23T03:06:38;0.90;;;0.90;;
60710;SDS011;46554;48.138;8.420;2024-02-23T03:09:04;1.48;;;0.93;;
60710;SDS011;46554;48.138;8.420;2024-02-23T03:11:31;1.00;;;1.00;;
60710;SDS011;46554;48.138;8.420;2024-02-23T03:13:56;2.30;;;1.48;;
60710;SDS011;46554;48.138;8.420;2024-02-23T03:16:22;0.90;;;0.90;;
60710;SDS011;46554;48.138;8.420;2024-02-23T03:18:55;0.98;;;0.98;;
60710;SDS011;46554;48.138;8.420;2024-02-23T03:21:21;0.93;;;0.93;;
60710;SDS011;46554;48.138;8.420;2024-02-23T03:23:46;1.20;;;1.20;;
60710;SDS011;46554;48.138;8.420;2024-02-23T03:26:11;0.70;;;0.70;;
60710;SDS011;46554;48.138;8.420;2024-02-23T03:28:37;0.98;;;0.98;;
60710;SDS011;46554;48.138;8.420;2024-02-23T03:31:02;1.35;;;1.35;;
60710;SDS011;46554;48.138;8.420;2024-02-23T03:33:28;0.98;;;0.98;;
60710;SDS011;46554;48.138;8.420;2024-02-23T03:35:53;0.75;;;0.75;;
60710;SDS011;46554;48.138;8.420;2024-02-23T03:38:20;1.27;;;1.27;;
60710;SDS011;46554;48.138;8.420;2024-02-23T03:40:46;1.30;;;1.30;;
60710;SDS011;46554;48.138;8.420;2024-02-23T03:43:11;2.25;;;1.50;;
60710;SDS011;46554;48.138;8.420;2024-02-23T03:45:36;1.70;;;1.70;;
60710;SDS011;46554;48.138;8.420;2024-02-23T03:48:03;0.80;;;0.80;;
60710;SDS011;46554;48.138;8.420;2024-02-23T03:50:29;0.50;;;0.50;;
60710;SDS011;46554;48.138;8.420;2024-02-23T03:52:55;0.50;;;0.50;;
60710;SDS011;46554;48.138;8.420;2024-02-23T03:55:20;0.60;;;0.60;;
60710;SDS011;46554;48.138;8.420;2024-02-23T03:57:49;1.17;;;1.17;;
60710;SDS011;46554;48.138;8.420;2024-02-23T04:00:14;2.00;;;2.00;;
60710;SDS011;46554;48.138;8.420;2024-02-23T04:02:40;1.35;;;1.25;;
60710;SDS011;46554;48.138;8.420;2024-02-23T04:05:06;0.80;;;0.80;;
60710;SDS011;46554;48.138;8.420;2024-02-23T04:07:32;0.70;;;0.70;;
60710;SDS011;46554;48.138;8.420;2024-02-23T04:09:57;1.30;;;1.30;;
60710;SDS011;46554;48.138;8.420;2024-02-23T04:12:23;0.77;;;0.77;;
60710;SDS011;46554;48.138;8.420;2024-02-23T04:14:51;0.60;;;0.60;;
60710;SDS011;46554;48.138;8.420;2024-02-23T04:17:17;0.60;;;0.60;;
60710;SDS011;46554;48.138;8.420;2024-02-23T04:19:42;2.30;;;1.23;;
60710;SDS011;46554;48.138;8.420;2024-02-23T04:22:08;0.60;;;0.60;;
60710;SDS011;46554;48.138;8.420;2024-02-23T04:24:35;0.60;;;0.60;;
60710;SDS011;46554;48.138;8.420;2024-02-23T04:27:03;0.60;;;0.60;;
60710;SDS011;46554;48.138;8.420;2024-02-23T04:29:29;0.60;;;0.60;;
60710;SDS011;46554;48.138;8.420;2024-02-23T04:31:54;0.60;;;0.60;;
60710;SDS011;46554;48.138;8.420;2024-02-23T04:34:23;0.60;;;0.60;;
60710;SDS011;46554;48.138;8.420;2024-02-23T04:36:50;0.70;;;0.70;;
60710;SDS011;46554;48.138;8.420;2024-02-23T04:39:16;0.50;;;0.50;;
60710;SDS011;46554;48.138;8.420;2024-02-23T04:41:41;0.60;;;0.60;;
60710;SDS011;46554;48.138;8.420;2024-02-23T04:44:07;0.65;;;0.65;;
60710;SDS011;46554;48.138;8.420;2024-02-23T04:46:32;0.70;;;0.70;;
60710;SDS011;46554;48.138;8.420;2024-02-23T04:48:59;0.60;;;0.60;;
60710;SDS011;46554;48.138;8.420;2024-02-23T04:51:25;0.60;;;0.60;;
60710;SDS011;46554;48.138;8.420;2024-02-23T04:53:52;0.60;;;0.60;;
60710;SDS011;46554;48.138;8.420;2024-02-23T04:56:18;0.93;;;0.93;;
60710;SDS011;46554;48.138;8.420;2024-02-23T04:58:43;0.60;;;0.60;;
60710;SDS011;46554;48.138;8.420;2024-02-23T05:01:14;0.65;;;0.65;;
60710;SDS011;46554;48.138;8.420;2024-02-23T05:03:42;0.88;;;0.88;;
60710;SDS011;46554;48.138;8.420;2024-02-23T05:06:07;0.70;;;0.70;;
60710;SDS011;46554;48.138;8.420;2024-02-23T05:08:33;0.60;;;0.60;;
60710;SDS011;46554;48.138;8.420;2024-02-23T05:10:58;2.63;;;1.45;;
60710;SDS011;46554;48.138;8.420;2024-02-23T05:13:24;0.60;;;0.60;;
60710;SDS011;46554;48.138;8.420;2024-02-23T05:15:54;0.80;;;0.80;;
60710;SDS011;46554;48.138;8.420;2024-02-23T05:18:20;0.60;;;0.60;;
60710;SDS011;46554;48.138;8.420;2024-02-23T05:20:46;0.60;;;0.60;;
60710;SDS011;46554;48.138;8.420;2024-02-23T05:23:11;1.13;;;1.13;;
60710;SDS011;46554;48.138;8.420;2024-02-23T05:25:41;1.00;;;1.00;;
60710;SDS011;46554;48.138;8.420;2024-02-23T05:28:10;1.13;;;1.13;;
60710;SDS011;46554;48.138;8.420;2024-02-23T05:30:35;0.90;;;0.90;;
60710;SDS011;46554;48.138;8.420;2024-02-23T05:33:01;0.82;;;0.82;;
60710;SDS011;46554;48.138;8.420;2024-02-23T05:35:30;0.73;;;0.73;;
60710;SDS011;46554;48.138;8.420;2024-02-23T05:37:55;0.63;;;0.63;;
60710;SDS011;46554;48.138;8.420;2024-02-23T05:40:21;0.77;;;0.77;;
60710;SDS011;46554;48.138;8.420;2024-02-23T05:42:46;0.60;;;0.60;;
60710;SDS011;46554;48.138;8.420;2024-02-23T05:45:12;0.60;;;0.60;;
60710;SDS011;46554;48.138;8.420;2024-02-23T05:47:38;0.60;;;0.60;;
60710;SDS011;46554;48.138;8.420;2024-02-23T05:50:07;0.60;;;0.60;;
60710;SDS011;46554;48.138;8.420;2024-02-23T05:52:33;3.47;;;1.10;;
60710;SDS011;46554;48.138;8.420;2024-02-23T05:54:59;0.60;;;0.60;;
60710;SDS011;46554;48.138;8.420;2024-02-23T05:57:28;0.60;;;0.60;;
60710;SDS011;46554;48.138;8.420;2024-02-23T05:59:53;0.60;;;0.60;;
60710;SDS011;46554;48.138;8.420;2024-02-23T06:02:20;0.90;;;0.75;;
60710;SDS011;46554;48.138;8.420;2024-02-23T06:04:46;0.60;;;0.60;;
60710;SDS011;46554;48.138;8.420;2024-02-23T06:07:13;3.83;;;1.42;;
60710;SDS011;46554;48.138;8.420;2024-02-23T06:09:42;0.60;;;0.60;;
60710;SDS011;46554;48.138;8.420;2024-02-23T06:12:07;0.80;;;0.80;;
60710;SDS011;46554;48.138;8.420;2024-02-23T06:14:36;0.60;;;0.60;;
60710;SDS011;46554;48.138;8.420;2024-02-23T06:17:01;1.15;;;1.15;;
60710;SDS011;46554;48.138;8.420;2024-02-23T06:19:27;7.88;;;1.13;;
60710;SDS011;46554;48.138;8.420;2024-02-23T06:21:53;0.70;;;0.70;;
60710;SDS011;46554;48.138;8.420;2024-02-23T06:24:19;0.60;;;0.60;;
60710;SDS011;46554;48.138;8.420;2024-02-23T06:26:46;0.52;;;0.52;;
60710;SDS011;46554;48.138;8.420;2024-02-23T06:29:14;0.50;;;0.50;;
60710;SDS011;46554;48.138;8.420;2024-02-23T06:31:40;0.50;;;0.50;;
60710;SDS011;46554;48.138;8.420;2024-02-23T06:34:06;0.50;;;0.50;;
60710;SDS011;46554;48.138;8.420;2024-02-23T06:36:32;0.55;;;0.55;;
60710;SDS011;46554;48.138;8.420;2024-02-23T06:39:00;0.55;;;0.55;;
60710;SDS011;46554;48.138;8.420;2024-02-23T06:41:28;0.70;;;0.70;;
60710;SDS011;46554;48.138;8.420;2024-02-23T06:43:54;2.30;;;0.93;;
60710;SDS011;46554;48.138;8.420;2024-02-23T06:46:19;0.60;;;0.60;;
60710;SDS011;46554;48.138;8.420;2024-02-23T06:48:47;1.10;;;0.98;;
60710;SDS011;46554;48.138;8.420;2024-02-23T06:51:13;0.50;;;0.50;;
60710;SDS011;46554;48.138;8.420;2024-02-23T06:53:39;0.50;;;0.50;;
60710;SDS011;46554;48.138;8.420;2024-02-23T06:56:04;0.63;;;0.63;;
60710;SDS011;46554;48.138;8.420;2024-02-23T06:58:30;1.33;;;1.33;;
60710;SDS011;46554;48.138;8.420;2024-02-23T07:00:58;1.40;;;1.27;;
60710;SDS011;46554;48.138;8.420;2024-02-23T07:03:25;0.70;;;0.70;;
60710;SDS011;46554;48.138;8.420;2024-02-23T07:05:50;0.50;;;0.50;;
60710;SDS011;46554;48.138;8.420;2024-02-23T07:08:15;11.52;;;1.33;;
60710;SDS011;46554;48.138;8.420;2024-02-23T07:10:43;0.60;;;0.60;;
60710;SDS011;46554;48.138;8.420;2024-02-23T07:13:11;0.60;;;0.60;;
60710;SDS011;46554;48.138;8.420;2024-02-23T07:15:36;0.70;;;0.70;;
60710;SDS011;46554;48.138;8.420;2024-02-23T07:18:04;1.15;;;1.05;;
60710;SDS011;46554;48.138;8.420;2024-02-23T07:20:33;1.10;;;1.10;;
60710;SDS011;46554;48.138;8.420;2024-02-23T07:23:00;8.23;;;1.48;;
60710;SDS011;46554;48.138;8.420;2024-02-23T07:25:27;1.85;;;1.30;;
60710;SDS011;46554;48.138;8.420;2024-02-23T07:27:52;0.85;;;0.85;;
60710;SDS011;46554;48.138;8.420;2024-02-23T07:30:23;1.55;;;1.05;;
60710;SDS011;46554;48.138;8.420;2024-02-23T07:32:51;1.00;;;1.00;;
60710;SDS011;46554;48.138;8.420;2024-02-23T07:35:17;1.05;;;1.05;;
60710;SDS011;46554;48.138;8.420;2024-02-23T07:37:43;1.17;;;1.17;;
60710;SDS011;46554;48.138;8.420;2024-02-23T07:40:08;2.38;;;1.70;;
60710;SDS011;46554;48.138;8.420;2024-02-23T07:42:34;6.03;;;3.17;;
60710;SDS011;46554;48.138;8.420;2024-02-23T07:47:31;0.80;;;0.80;;
60710;SDS011;46554;48.138;8.420;2024-02-23T07:49:57;4.00;;;1.33;;
60710;SDS011;46554;48.138;8.420;2024-02-23T07:52:22;1.10;;;1.10;;
60710;SDS011;46554;48.138;8.420;2024-02-23T07:54:49;1.85;;;1.75;;
60710;SDS011;46554;48.138;8.420;2024-02-23T07:57:17;0.93;;;0.93;;
60710;SDS011;46554;48.138;8.420;2024-02-23T07:59:42;0.70;;;0.70;;
60710;SDS011;46554;48.138;8.420;2024-02-23T08:02:08;2.17;;;0.82;;
60710;SDS011;46554;48.138;8.420;2024-02-23T08:04:36;0.60;;;0.60;;
60710;SDS011;46554;48.138;8.420;2024-02-23T08:07:05;0.50;;;0.50;;
60710;SDS011;46554;48.138;8.420;2024-02-23T08:09:30;0.68;;;0.68;;
60710;SDS011;46554;48.138;8.420;2024-02-23T08:11:56;1.00;;;1.00;;
60710;SDS011;46554;48.138;8.420;2024-02-23T08:14:21;2.75;;;1.35;;
60710;SDS011;46554;48.138;8.420;2024-02-23T08:16:50;1.85;;;1.45;;
60710;SDS011;46554;48.138;8.420;2024-02-23T08:19:18;1.15;;;1.15;;
60710;SDS011;46554;48.138;8.420;2024-02-23T08:21:46;0.85;;;0.85;;
60710;SDS011;46554;48.138;8.420;2024-02-23T08:24:12;0.60;;;0.60;;
60710;SDS011;46554;48.138;8.420;2024-02-23T08:26:38;0.93;;;0.93;;
60710;SDS011;46554;48.138;8.420;2024-02-23T08:29:05;0.90;;;0.90;;
60710;SDS011;46554;48.138;8.420;2024-02-23T08:31:31;0.90;;;0.90;;
60710;SDS011;46554;48.138;8.420;2024-02-23T08:34:00;17.25;;;2.35;;
60710;SDS011;46554;48.138;8.420;2024-02-23T08:36:27;1.40;;;1.30;;
60710;SDS011;46554;48.138;8.420;2024-02-23T08:38:54;2.63;;;1.35;;
60710;SDS011;46554;48.138;8.420;2024-02-23T08:41:19;0.70;;;0.70;;
60710;SDS011;46554;48.138;8.420;2024-02-23T08:43:51;0.70;;;0.70;;
60710;SDS011;46554;48.138;8.420;2024-02-23T08:46:17;0.70;;;0.70;;
60710;SDS011;46554;48.138;8.420;2024-02-23T08:48:44;0.63;;;0.63;;
60710;SDS011;46554;48.138;8.420;2024-02-23T08:51:11;0.88;;;0.88;;
60710;SDS011;46554;48.138;8.420;2024-02-23T08:53:37;1.25;;;0.70;;
60710;SDS011;46554;48.138;8.420;2024-02-23T08:56:02;0.68;;;0.68;;
60710;SDS011;46554;48.138;8.420;2024-02-23T08:58:28;2.08;;;1.98;;
60710;SDS011;46554;48.138;8.420;2024-02-23T09:00:56;0.85;;;0.85;;
60710;SDS011;46554;48.138;8.420;2024-02-23T09:03:21;0.82;;;0.82;;
60710;SDS011;46554;48.138;8.420;2024-02-23T09:05:46;1.25;;;1.15;;
60710;SDS011;46554;48.138;8.420;2024-02-23T09:08:13;1.10;;;1.08;;
60710;SDS011;46554;48.138;8.420;2024-02-23T09:10:39;0.73;;;0.73;;
60710;SDS011;46554;48.138;8.420;2024-02-23T09:13:04;1.23;;;1.23;;
60710;SDS011;46554;48.138;8.420;2024-02-23T09:15:30;0.90;;;0.90;;
60710;SDS011;46554;48.138;8.420;2024-02-23T09:17:56;1.95;;;1.35;;
60710;SDS011;46554;48.138;8.420;2024-02-23T09:20:21;1.40;;;1.40;;
60710;SDS011;46554;48.138;8.420;2024-02-23T09:22:49;25.33;;;1.25;;
60710;SDS011;46554;48.138;8.420;2024-02-23T09:25:15;6.53;;;1.35;;
60710;SDS011;46554;48.138;8.420;2024-02-23T09:27:40;0.93;;;0.93;;
60710;SDS011;46554;48.138;8.420;2024-02-23T09:30:12;0.90;;;0.90;;
60710;SDS011;46554;48.138;8.420;2024-02-23T09:32:38;1.10;;;1.10;;
60710;SDS011;46554;48.138;8.420;2024-02-23T09:35:03;1.27;;;1.27;;
60710;SDS011;46554;48.138;8.420;2024-02-23T09:37:29;0.73;;;0.73;;
60710;SDS011;46554;48.138;8.420;2024-02-23T09:39:55;1.20;;;1.20;;
60710;SDS011;46554;48.138;8.420;2024-02-23T09:42:22;0.80;;;0.80;;
60710;SDS011;46554;48.138;8.420;2024-02-23T09:44:52;1.95;;;1.20;;
60710;SDS011;46554;48.138;8.420;2024-02-23T09:47:29;1.05;;;1.05;;
60710;SDS011;46554;48.138;8.420;2024-02-23T09:49:57;1.15;;;1.15;;
60710;SDS011;46554;48.138;8.420;2024-02-23T09:52:25;1.45;;;1.45;;
60710;SDS011;46554;48.138;8.420;2024-02-23T09:54:53;2.30;;;1.75;;
60710;SDS011;46554;48.138;8.420;2024-02-23T09:57:20;0.85;;;0.85;;
60710;SDS011;46554;48.138;8.420;2024-02-23T09:59:46;0.85;;;0.85;;
60710;SDS011;46554;48.138;8.420;2024-02-23T10:02:17;1.08;;;1.08;;
60710;SDS011;46554;48.138;8.420;2024-02-23T10:04:42;0.98;;;0.98;;
60710;SDS011;46554;48.138;8.420;2024-02-23T10:07:08;0.90;;;0.90;;
60710;SDS011;46554;48.138;8.420;2024-02-23T10:09:34;1.00;;;1.00;;
60710;SDS011;46554;48.138;8.420;2024-02-23T10:12:01;0.80;;;0.80;;
60710;SDS011;46554;48.138;8.420;2024-02-23T10:14:27;2.35;;;2.25;;
60710;SDS011;46554;48.138;8.420;2024-02-23T10:16:53;6.03;;;2.55;;
60710;SDS011;46554;48.138;8.420;2024-02-23T10:19:20;1.00;;;1.00;;
60710;SDS011;46554;48.138;8.420;2024-02-23T10:21:45;1.00;;;1.00;;
60710;SDS011;46554;48.138;8.420;2024-02-23T10:24:11;1.65;;;0.98;;
60710;SDS011;46554;48.138;8.420;2024-02-23T10:26:36;1.27;;;1.23;;
60710;SDS011;46554;48.138;8.420;2024-02-23T10:29:02;1.33;;;1.33;;
60710;SDS011;46554;48.138;8.420;2024-02-23T10:31:28;0.95;;;0.95;;
60710;SDS011;46554;48.138;8.420;2024-02-23T10:34:00;0.85;;;0.85;;
60710;SDS011;46554;48.138;8.420;2024-02-23T10:36:34;0.98;;;0.98;;
60710;SDS011;46554;48.138;8.420;2024-02-23T10:39:03;1.40;;;1.40;;
60710;SDS011;46554;48.138;8.420;2024-02-23T10:41:29;0.95;;;0.95;;
60710;SDS011;46554;48.138;8.420;2024-02-23T10:43:56;1.10;;;1.10;;
60710;SDS011;46554;48.138;8.420;2024-02-23T10:46:25;0.75;;;0.75;;
60710;SDS011;46554;48.138;8.420;2024-02-23T10:48:50;1.48;;;1.30;;
60710;SDS011;46554;48.138;8.420;2024-02-23T10:51:16;0.88;;;0.88;;
60710;SDS011;46554;48.138;8.420;2024-02-23T10:53:42;1.08;;;1.08;;
60710;SDS011;46554;48.138;8.420;2024-02-23T10:56:09;1.33;;;1.33;;
60710;SDS011;46554;48.138;8.420;2024-02-23T10:58:35;1.20;;;1.17;;
60710;SDS011;46554;48.138;8.420;2024-02-23T11:01:03;0.90;;;0.90;;
60710;SDS011;46554;48.138;8.420;2024-02-23T11:03:33;4.70;;;4.45;;
60710;SDS011;46554;48.138;8.420;2024-02-23T11:06:00;3.03;;;1.65;;
60710;SDS011;46554;48.138;8.420;2024-02-23T11:08:28;6.72;;;1.30;;
60710;SDS011;46554;48.138;8.420;2024-02-23T11:10:57;0.80;;;0.80;;
60710;SDS011;46554;48.138;8.420;2024-02-23T11:13:35;0.88;;;0.88;;
60710;SDS011;46554;48.138;8.420;2024-02-23T11:16:07;1.10;;;1.10;;
60710;SDS011;46554;48.138;8.420;2024-02-23T11:18:38;1.98;;;1.90;;
60710;SDS011;46554;48.138;8.420;2024-02-23T11:21:04;1.88;;;1.88;;
60710;SDS011;46554;48.138;8.420;2024-02-23T11:23:43;1.73;;;1.73;;
60710;SDS011;46554;48.138;8.420;2024-02-23T11:26:09;1.20;;;1.20;;
60710;SDS011;46554;48.138;8.420;2024-02-23T11:28:42;1.05;;;1.05;;
60710;SDS011;46554;48.138;8.420;2024-02-23T11:31:14;2.25;;;2.15;;
60710;SDS011;46554;48.138;8.420;2024-02-23T11:34:07;1.88;;;1.85;;
60710;SDS011;46554;48.138;8.420;2024-02-23T11:36:27;1.55;;;1.55;;
60710;SDS011;46554;48.138;8.420;2024-02-23T11:38:56;1.63;;;1.63;;
60710;SDS011;46554;48.138;8.420;2024-02-23T11:41:23;1.67;;;1.65;;
60710;SDS011;46554;48.138;8.420;2024-02-23T11:43:53;1.20;;;1.20;;
60710;SDS011;46554;48.138;8.420;2024-02-23T11:46:21;1.55;;;1.55;;
60710;SDS011;46554;48.138;8.420;2024-02-23T11:48:48;1.58;;;1.58;;
60710;SDS011;46554;48.138;8.420;2024-02-23T11:51:19;2.00;;;1.50;;
60710;SDS011;46554;48.138;8.420;2024-02-23T11:53:49;1.45;;;1.45;;
60710;SDS011;46554;48.138;8.420;2024-02-23T11:56:15;2.33;;;2.25;;
60710;SDS011;46554;48.138;8.420;2024-02-23T11:58:43;5.97;;;4.55;;
60710;SDS011;46554;48.138;8.420;2024-02-23T12:01:10;0.88;;;0.88;;
60710;SDS011;46554;48.138;8.420;2024-02-23T12:03:35;2.95;;;1.13;;
60710;SDS011;46554;48.138;8.420;2024-02-23T12:06:02;1.88;;;1.30;;
60710;SDS011;46554;48.138;8.420;2024-02-23T12:08:29;1.52;;;1.52;;
60710;SDS011;46554;48.138;8.420;2024-02-23T12:11:02;1.40;;;1.40;;
60710;SDS011;46554;48.138;8.420;2024-02-23T12:13:28;1.92;;;1.92;;
60710;SDS011;46554;48.138;8.420;2024-02-23T12:15:54;2.58;;;2.47;;
60710;SDS011;46554;48.138;8.420;2024-02-23T12:18:26;2.22;;;2.17;;
60710;SDS011;46554;48.138;8.420;2024-02-23T12:20:53;2.78;;;2.67;;
60710;SDS011;46554;48.138;8.420;2024-02-23T12:23:18;2.30;;;2.25;;
60710;SDS011;46554;48.138;8.420;2024-02-23T12:25:54;1.85;;;1.70;;
60710;SDS011;46554;48.138;8.420;2024-02-23T12:28:21;4.28;;;1.13;;
60710;SDS011;46554;48.138;8.420;2024-02-23T12:30:57;2.45;;;1.98;;
60710;SDS011;46554;48.138;8.420;2024-02-23T12:33:30;1.42;;;1.42;;
60710;SDS011;46554;48.138;8.420;2024-02-23T12:35:57;1.15;;;1.15;;
60710;SDS011;46554;48.138;8.420;2024-02-23T12:38:24;1.48;;;1.48;;
60710;SDS011;46554;48.138;8.420;2024-02-23T12:40:51;1.05;;;1.05;;
60710;SDS011;46554;48.138;8.420;2024-02-23T12:43:17;0.70;;;0.70;;
60710;SDS011;46554;48.138;8.420;2024-02-23T12:45:43;1.50;;;1.50;;
60710;SDS011;46554;48.138;8.420;2024-02-23T12:48:14;0.90;;;0.90;;
60710;SDS011;46554;48.138;8.420;2024-02-23T12:50:42;0.70;;;0.70;;
60710;SDS011;46554;48.138;8.420;2024-02-23T12:53:11;0.90;;;0.90;;
60710;SDS011;46554;48.138;8.420;2024-02-23T12:55:57;0.88;;;0.88;;
60710;SDS011;46554;48.138;8.420;2024-02-23T12:58:22;1.00;;;1.00;;
60710;SDS011;46554;48.138;8.420;2024-02-23T13:00:50;0.90;;;0.90;;
60710;SDS011;46554;48.138;8.420;2024-02-23T13:03:15;1.00;;;1.00;;
60710;SDS011;46554;48.138;8.420;2024-02-23T13:05:42;2.05;;;1.10;;
60710;SDS011;46554;48.138;8.420;2024-02-23T13:08:07;1.13;;;1.13;;
60710;SDS011;46554;48.138;8.420;2024-02-23T13:10:33;2.10;;;2.10;;
60710;SDS011;46554;48.138;8.420;2024-02-23T13:13:00;2.28;;;2.05;;
60710;SDS011;46554;48.138;8.420;2024-02-23T13:15:26;2.70;;;2.60;;
60710;SDS011;46554;48.138;8.420;2024-02-23T13:17:51;1.00;;;1.00;;
60710;SDS011;46554;48.138;8.420;2024-02-23T13:20:16;1.27;;;1.27;;
60710;SDS011;46554;48.138;8.420;2024-02-23T13:22:42;0.82;;;0.82;;
60710;SDS011;46554;48.138;8.420;2024-02-23T13:25:08;0.80;;;0.80;;
60710;SDS011;46554;48.138;8.420;2024-02-23T13:27:33;0.70;;;0.70;;
60710;SDS011;46554;48.138;8.420;2024-02-23T13:30:01;1.40;;;1.40;;
60710;SDS011;46554;48.138;8.420;2024-02-23T13:32:27;2.65;;;2.58;;
60710;SDS011;46554;48.138;8.420;2024-02-23T13:34:53;1.10;;;1.10;;
60710;SDS011;46554;48.138;8.420;2024-02-23T13:37:19;0.88;;;0.88;;
60710;SDS011;46554;48.138;8.420;2024-02-23T13:39:44;0.73;;;0.73;;
60710;SDS011;46554;48.138;8.420;2024-02-23T13:42:10;1.25;;;1.25;;
60710;SDS011;46554;48.138;8.420;2024-02-23T13:44:39;1.25;;;1.25;;
60710;SDS011;46554;48.138;8.420;2024-02-23T13:47:05;0.90;;;0.90;;
60710;SDS011;46554;48.138;8.420;2024-02-23T13:49:30;0.95;;;0.95;;
60710;SDS011;46554;48.138;8.420;2024-02-23T13:51:58;1.88;;;1.77;;
60710;SDS011;46554;48.138;8.420;2024-02-23T13:54:24;0.85;;;0.85;;
60710;SDS011;46554;48.138;8.420;2024-02-23T13:56:50;1.00;;;1.00;;
60710;SDS011;46554;48.138;8.420;2024-02-23T13:59:15;1.40;;;1.40;;
60710;SDS011;46554;48.138;8.420;2024-02-23T14:01:41;3.05;;;2.95;;
60710;SDS011;46554;48.138;8.420;2024-02-23T14:04:08;3.10;;;3.00;;
60710;SDS011;46554;48.138;8.420;2024-02-23T14:06:33;3.00;;;2.75;;
60710;SDS011;46554;48.138;8.420;2024-02-23T14:08:59;2.45;;;2.35;;
60710;SDS011;46554;48.138;8.420;2024-02-23T14:11:24;3.10;;;3.00;;
60710;SDS011;46554;48.138;8.420;2024-02-23T14:13:52;2.30;;;2.20;;
60710;SDS011;46554;48.138;8.420;2024-02-23T14:16:19;1.55;;;1.55;;
60710;SDS011;46554;48.138;8.420;2024-02-23T14:18:45;4.03;;;2.25;;
60710;SDS011;46554;48.138;8.420;2024-02-23T14:21:10;1.63;;;1.63;;
60710;SDS011;46554;48.138;8.420;2024-02-23T14:23:37;2.40;;;2.30;;
60710;SDS011;46554;48.138;8.420;2024-02-23T14:26:03;2.00;;;2.00;;
60710;SDS011;46554;48.138;8.420;2024-02-23T14:28:29;3.70;;;2.00;;
60710;SDS011;46554;48.138;8.420;2024-02-23T14:30:54;2.15;;;1.08;;
60710;SDS011;46554;48.138;8.420;2024-02-23T14:33:20;9.63;;;1.40;;
60710;SDS011;46554;48.138;8.420;2024-02-23T14:35:47;1.77;;;1.63;;
60710;SDS011;46554;48.138;8.420;2024-02-23T14:38:14;2.78;;;2.70;;
60710;SDS011;46554;48.138;8.420;2024-02-23T14:40:41;3.85;;;3.33;;
60710;SDS011;46554;48.138;8.420;2024-02-23T14:43:06;4.28;;;4.07;;
60710;SDS011;46554;48.138;8.420;2024-02-23T14:45:33;3.10;;;2.90;;
60710;SDS011;46554;48.138;8.420;2024-02-23T14:48:01;2.80;;;2.70;;